Salyer, California
Current Conditions -  °F | °C
As of 11:21 AM on Monday 22 Dec 2014 (Local Time) from KACV Reporting Station
Moderate Fog Moderate Fog  
Wind Chill: 57°   Ceiling: 200
Heat Index: 57°   Visibility: 0.5mi
Dew Point: 57°   Wind: 5mph
Humidity: 100%   Direction: 290°WNW
Pressure: 30.36"   Gusts: NA
Location:  40.89°N, 123.59°W
Report Text: KACV 221921Z AUTO 29004KT 1/2SM R32/2800VP6000FT FG VV002 14/14 A3036 RMK AO2 T01390139
Loading
Personal Weather Stations






























Interactive Weather Map New forecast layout! Learn more

10-Day Weather Forecast

Advertisements
Track Severe Weather on mobile